sensor_id;sensor_type;location;lat;lon;timestamp;temperature;humidity
11583;DHT22;34299;50.820;4.548;2023-04-03T06:38:04;-0.60;99.90
11583;DHT22;34299;50.820;4.548;2023-04-03T06:40:35;-0.60;99.90
11583;DHT22;34299;50.820;4.548;2023-04-03T06:43:03;-0.50;99.90
11583;DHT22;34299;50.820;4.548;2023-04-03T06:45:30;-0.50;99.90
11583;DHT22;34299;50.820;4.548;2023-04-03T06:47:57;-0.30;99.90
11583;DHT22;34299;50.820;4.548;2023-04-03T06:50:25;-0.30;99.90
11583;DHT22;34299;50.820;4.548;2023-04-03T06:52:52;-0.20;99.90
11583;DHT22;34299;50.820;4.548;2023-04-03T06:55:19;0.00;99.90
11583;DHT22;34299;50.820;4.548;2023-04-03T06:57:46;0.20;99.90
11583;DHT22;34299;50.820;4.548;2023-04-03T07:00:15;0.40;99.90
11583;DHT22;34299;50.820;4.548;2023-04-03T07:02:42;0.50;99.90
11583;DHT22;34299;50.820;4.548;2023-04-03T07:05:09;0.70;99.90
11583;DHT22;34299;50.820;4.548;2023-04-03T07:07:37;0.80;99.90
11583;DHT22;34299;50.820;4.548;2023-04-03T07:10:05;0.90;99.90
11583;DHT22;34299;50.820;4.548;2023-04-03T07:12:33;1.10;99.90
11583;DHT22;34299;50.820;4.548;2023-04-03T07:15:00;1.20;99.90
11583;DHT22;34299;50.820;4.548;2023-04-03T07:17:28;1.50;99.90
11583;DHT22;34299;50.820;4.548;2023-04-03T07:19:55;1.50;99.90
11583;DHT22;34299;50.820;4.548;2023-04-03T07:22:22;1.60;99.90
11583;DHT22;34299;50.820;4.548;2023-04-03T07:24:49;1.70;99.90
11583;DHT22;34299;50.820;4.548;2023-04-03T07:27:16;1.80;99.90
11583;DHT22;34299;50.820;4.548;2023-04-03T07:29:43;2.10;99.90
11583;DHT22;34299;50.820;4.548;2023-04-03T07:32:10;2.30;99.90
11583;DHT22;34299;50.820;4.548;2023-04-03T07:34:39;2.40;99.90
11583;DHT22;34299;50.820;4.548;2023-04-03T07:37:06;2.60;99.90
11583;DHT22;34299;50.820;4.548;2023-04-03T07:39:34;2.70;99.90
11583;DHT22;34299;50.820;4.548;2023-04-03T07:42:02;2.80;99.90
11583;DHT22;34299;50.820;4.548;2023-04-03T07:44:29;2.90;99.90
11583;DHT22;34299;50.820;4.548;2023-04-03T07:46:56;3.00;99.90
11583;DHT22;34299;50.820;4.548;2023-04-03T07:49:23;3.00;99.90
11583;DHT22;34299;50.820;4.548;2023-04-03T07:51:51;3.30;99.90
11583;DHT22;34299;50.820;4.548;2023-04-03T07:54:18;3.40;99.90
11583;DHT22;34299;50.820;4.548;2023-04-03T07:56:45;3.60;99.90
11583;DHT22;34299;50.820;4.548;2023-04-03T07:59:12;3.50;99.90
11583;DHT22;34299;50.820;4.548;2023-04-03T08:01:39;3.60;99.90
11583;DHT22;34299;50.820;4.548;2023-04-03T08:04:06;3.80;99.90
11583;DHT22;34299;50.820;4.548;2023-04-03T08:06:33;4.00;99.90
11583;DHT22;34299;50.820;4.548;2023-04-03T08:09:03;4.10;99.90
11583;DHT22;34299;50.820;4.548;2023-04-03T08:11:30;4.20;99.90
11583;DHT22;34299;50.820;4.548;2023-04-03T08:13:58;4.30;99.90
11583;DHT22;34299;50.820;4.548;2023-04-03T08:16:25;4.40;99.90
11583;DHT22;34299;50.820;4.548;2023-04-03T08:18:53;4.60;99.90
11583;DHT22;34299;50.820;4.548;2023-04-03T08:21:21;4.80;99.90
11583;DHT22;34299;50.820;4.548;2023-04-03T08:23:49;4.90;99.90
11583;DHT22;34299;50.820;4.548;2023-04-03T08:26:19;5.00;99.90
11583;DHT22;34299;50.820;4.548;2023-04-03T08:28:47;5.10;99.90
11583;DHT22;34299;50.820;4.548;2023-04-03T08:31:17;5.30;99.90
11583;DHT22;34299;50.820;4.548;2023-04-03T08:33:45;5.40;99.90
11583;DHT22;34299;50.820;4.548;2023-04-03T08:36:18;5.50;99.90
11583;DHT22;34299;50.820;4.548;2023-04-03T08:38:46;5.70;99.90
11583;DHT22;34299;50.820;4.548;2023-04-03T08:41:24;5.90;99.90
11583;DHT22;34299;50.820;4.548;2023-04-03T08:44:07;5.90;99.90
11583;DHT22;34299;50.820;4.548;2023-04-03T08:46:45;5.90;99.90
11583;DHT22;34299;50.820;4.548;2023-04-03T08:49:21;6.00;99.90
11583;DHT22;34299;50.820;4.548;2023-04-03T08:51:51;6.20;99.90
11583;DHT22;34299;50.820;4.548;2023-04-03T08:54:30;6.30;99.90
11583;DHT22;34299;50.820;4.548;2023-04-03T08:57:01;6.40;99.90
11583;DHT22;34299;50.820;4.548;2023-04-03T08:59:32;6.40;99.90
11583;DHT22;34299;50.820;4.548;2023-04-03T09:02:02;6.50;99.90
11583;DHT22;34299;50.820;4.548;2023-04-03T09:04:32;6.60;99.90
